createdAt,value
2023-04-15T00:01:49.211Z,2.43
2023-04-15T00:04:16.344Z,2.13
2023-04-15T00:06:43.371Z,2.30
2023-04-15T00:09:10.285Z,2.80
2023-04-15T00:11:37.146Z,3.97
2023-04-15T00:14:04.593Z,4.03
2023-04-15T00:16:31.511Z,3.40
2023-04-15T00:18:59.101Z,3.10
2023-04-15T00:21:27.665Z,3.30
2023-04-15T00:23:54.875Z,3.00
2023-04-15T00:26:22.285Z,2.90
2023-04-15T00:28:50.054Z,2.27
2023-04-15T00:31:17.131Z,2.77
2023-04-15T00:33:44.735Z,2.60
2023-04-15T00:36:11.614Z,2.60
2023-04-15T00:38:39.113Z,2.30
2023-04-15T00:41:06.045Z,2.03
2023-04-15T00:43:32.917Z,2.00
2023-04-15T00:46:01.025Z,2.60
2023-04-15T00:48:28.674Z,2.63
2023-04-15T00:50:55.559Z,3.30
2023-04-15T00:53:22.493Z,2.63
2023-04-15T00:55:50.175Z,3.30
2023-04-15T00:58:17.334Z,2.60
2023-04-15T01:00:44.602Z,2.90
2023-04-15T01:03:11.774Z,2.23
2023-04-15T01:05:39.412Z,2.13
2023-04-15T01:08:06.745Z,2.40
2023-04-15T01:10:33.865Z,2.30
2023-04-15T01:13:01.334Z,1.90
2023-04-15T01:15:28.182Z,2.10
2023-04-15T01:17:55.330Z,2.07
2023-04-15T01:20:22.330Z,1.87
2023-04-15T01:22:50.102Z,2.40
2023-04-15T01:25:27.134Z,2.00
2023-04-15T01:27:54.144Z,2.17
2023-04-15T01:30:21.827Z,2.60
2023-04-15T01:32:48.740Z,2.13
2023-04-15T01:35:15.656Z,2.27
2023-04-15T01:37:42.727Z,1.60
2023-04-15T01:40:09.882Z,2.20
2023-04-15T01:42:37.493Z,1.70
2023-04-15T01:45:04.737Z,1.93
2023-04-15T01:47:32.215Z,2.30
2023-04-15T01:49:59.084Z,2.80
2023-04-15T01:52:26.213Z,3.13
2023-04-15T01:54:53.061Z,2.70
2023-04-15T01:57:20.182Z,3.33
2023-04-15T01:59:47.077Z,3.20
2023-04-15T02:02:15.566Z,2.40
2023-04-15T02:04:42.622Z,2.43
2023-04-15T02:07:09.518Z,2.53
2023-04-15T02:09:36.381Z,2.27
2023-04-15T02:12:03.268Z,2.70
2023-04-15T02:14:30.144Z,1.90
2023-04-15T02:16:57.013Z,2.17
2023-04-15T02:19:23.873Z,2.30
2023-04-15T02:21:50.752Z,2.60
2023-04-15T02:24:18.051Z,2.43
2023-04-15T02:26:44.915Z,2.57
2023-04-15T02:29:11.932Z,2.27
2023-04-15T02:31:42.259Z,2.17
2023-04-15T02:34:09.291Z,2.30
2023-04-15T02:36:36.269Z,2.07
2023-04-15T02:39:05.416Z,1.80
2023-04-15T02:41:32.414Z,2.47
2023-04-15T02:43:59.502Z,2.63
2023-04-15T02:46:27.584Z,2.60
2023-04-15T02:48:54.637Z,2.67
2023-04-15T02:51:23.486Z,2.57
2023-04-15T02:53:50.720Z,3.07
2023-04-15T02:56:19.422Z,3.43
2023-04-15T02:58:46.455Z,4.30
2023-04-15T03:01:13.721Z,7.00
2023-04-15T03:03:41.723Z,5.50
2023-04-15T03:06:09.123Z,5.70
2023-04-15T03:08:36.549Z,4.87
2023-04-15T03:11:03.927Z,4.00
2023-04-15T03:13:31.949Z,3.70
2023-04-15T03:16:02.648Z,4.20
2023-04-15T03:18:31.324Z,3.87
2023-04-15T03:21:02.728Z,3.50
2023-04-15T03:23:31.596Z,3.70
2023-04-15T03:26:01.729Z,3.13
2023-04-15T03:28:30.107Z,3.50
2023-04-15T03:30:57.884Z,2.73
2023-04-15T03:33:24.738Z,2.67
2023-04-15T03:35:52.370Z,3.10
2023-04-15T03:38:19.238Z,3.00
2023-04-15T03:40:47.123Z,3.53
2023-04-15T03:43:13.995Z,2.93
2023-04-15T03:45:40.899Z,3.53
2023-04-15T03:48:17.290Z,3.70
2023-04-15T03:50:45.065Z,3.77
2023-04-15T03:53:12.075Z,3.50
2023-04-15T03:55:38.951Z,3.70
2023-04-15T03:58:06.107Z,3.23
2023-04-15T04:00:33.072Z,3.20
2023-04-15T04:03:00.103Z,3.83
2023-04-15T04:05:27.191Z,3.90
2023-04-15T04:07:54.000Z,3.13
2023-04-15T04:10:20.862Z,3.50
2023-04-15T04:12:47.789Z,3.80
2023-04-15T04:15:14.643Z,3.47
2023-04-15T04:17:41.583Z,3.47
2023-04-15T04:20:08.809Z,4.70
2023-04-15T04:22:41.813Z,3.23
2023-04-15T04:25:10.325Z,3.07
2023-04-15T04:27:37.715Z,2.93
2023-04-15T04:30:06.895Z,3.10
2023-04-15T04:32:33.761Z,2.73
2023-04-15T04:35:00.569Z,3.93
2023-04-15T04:37:27.440Z,5.07
2023-04-15T04:39:54.187Z,4.90
2023-04-15T04:42:21.048Z,5.37
2023-04-15T04:44:47.855Z,6.43
2023-04-15T04:47:14.719Z,6.07
2023-04-15T04:49:41.585Z,5.27
2023-04-15T04:52:08.451Z,5.60
2023-04-15T04:54:35.483Z,5.23
2023-04-15T04:57:02.359Z,4.97
2023-04-15T04:59:29.224Z,4.73
2023-04-15T05:01:56.569Z,4.47
2023-04-15T05:04:23.478Z,3.60
2023-04-15T05:06:50.448Z,3.60
2023-04-15T05:09:17.290Z,3.63
2023-04-15T05:11:44.100Z,4.37
2023-04-15T05:14:11.090Z,4.07
2023-04-15T05:16:37.879Z,4.90
2023-04-15T05:19:04.707Z,4.03
2023-04-15T05:21:31.767Z,3.77
2023-04-15T05:23:58.674Z,3.40
2023-04-15T05:26:25.509Z,3.60
2023-04-15T05:28:52.409Z,3.60
2023-04-15T05:31:19.501Z,7.43
2023-04-15T05:33:46.515Z,15.23
2023-04-15T05:36:13.413Z,9.27
2023-04-15T05:38:40.258Z,5.83
2023-04-15T05:41:07.139Z,4.40
2023-04-15T05:43:33.993Z,4.40
2023-04-15T05:46:00.797Z,4.37
2023-04-15T05:48:27.684Z,3.93
2023-04-15T05:50:54.594Z,4.40
2023-04-15T05:53:21.718Z,4.23
2023-04-15T05:55:48.528Z,3.83
2023-04-15T05:58:15.509Z,4.43
2023-04-15T06:00:42.328Z,3.80
2023-04-15T06:03:09.311Z,4.10
2023-04-15T06:05:36.235Z,3.97
2023-04-15T06:08:03.344Z,4.27
2023-04-15T06:10:30.885Z,3.90
2023-04-15T06:12:57.736Z,4.00
2023-04-15T06:15:24.597Z,3.57
2023-04-15T06:17:51.486Z,3.90
2023-04-15T06:20:18.360Z,3.47
2023-04-15T06:22:45.475Z,3.57
2023-04-15T06:25:12.314Z,3.83
2023-04-15T06:27:39.219Z,3.87
2023-04-15T06:30:06.736Z,4.47
2023-04-15T06:32:33.754Z,4.07
2023-04-15T06:35:00.920Z,5.00
2023-04-15T06:37:27.813Z,5.07
2023-04-15T06:39:54.685Z,4.77
2023-04-15T06:42:21.678Z,4.53
2023-04-15T06:44:48.541Z,4.10
2023-04-15T06:47:15.418Z,3.57
2023-04-15T06:49:43.234Z,4.07
2023-04-15T06:52:11.398Z,3.83
2023-04-15T06:54:38.242Z,3.53
2023-04-15T06:57:05.895Z,13.27
2023-04-15T06:59:32.846Z,12.03
2023-04-15T07:01:59.805Z,10.47
2023-04-15T07:04:27.767Z,7.13
2023-04-15T07:06:55.660Z,4.43
2023-04-15T07:09:23.866Z,12.40
2023-04-15T07:11:51.494Z,5.53
2023-04-15T07:14:18.613Z,5.50
2023-04-15T07:16:45.670Z,3.87
2023-04-15T07:19:12.505Z,3.07
2023-04-15T07:21:41.682Z,3.10
2023-04-15T07:24:10.524Z,2.63
2023-04-15T07:26:37.418Z,2.70
2023-04-15T07:29:04.379Z,2.80
2023-04-15T07:31:31.406Z,3.03
2023-04-15T07:33:58.690Z,3.80
2023-04-15T07:36:25.636Z,3.47
2023-04-15T07:38:52.921Z,3.27
2023-04-15T07:41:21.087Z,2.70
2023-04-15T07:43:48.838Z,3.20
2023-04-15T07:46:15.745Z,4.17
2023-04-15T07:48:42.860Z,4.50
2023-04-15T07:51:10.889Z,3.70
2023-04-15T07:53:38.188Z,3.10
2023-04-15T07:56:05.727Z,4.97
2023-04-15T07:58:32.610Z,5.27
2023-04-15T08:00:59.487Z,3.77
2023-04-15T08:03:26.783Z,5.30
2023-04-15T08:05:54.424Z,3.40
2023-04-15T08:08:21.259Z,3.53
2023-04-15T08:10:49.290Z,3.30
2023-04-15T08:13:17.901Z,3.07
2023-04-15T08:15:45.043Z,3.30
2023-04-15T08:18:12.039Z,2.27
2023-04-15T08:20:39.049Z,3.30
2023-04-15T08:23:05.910Z,2.70
2023-04-15T08:25:32.716Z,3.60
2023-04-15T08:27:59.645Z,3.03
2023-04-15T08:30:26.482Z,4.17
2023-04-15T08:32:53.389Z,2.83
2023-04-15T08:35:20.290Z,3.53
2023-04-15T08:37:47.124Z,2.87
2023-04-15T08:40:14.186Z,2.80
2023-04-15T08:42:52.590Z,2.53
2023-04-15T08:45:20.649Z,2.70
2023-04-15T08:47:51.065Z,2.70
2023-04-15T08:50:18.730Z,3.30
2023-04-15T08:52:45.809Z,3.30
2023-04-15T08:55:14.330Z,3.80
2023-04-15T08:57:41.288Z,3.20
2023-04-15T09:00:09.469Z,3.50
2023-04-15T09:02:36.958Z,3.43
2023-04-15T09:05:06.475Z,2.40
2023-04-15T09:07:36.753Z,2.83
2023-04-15T09:10:04.927Z,3.40
2023-04-15T09:12:34.217Z,5.07
2023-04-15T09:15:02.199Z,3.60
2023-04-15T09:17:29.274Z,3.00
2023-04-15T09:20:17.008Z,2.03
2023-04-15T09:22:45.966Z,1.87
2023-04-15T09:25:15.903Z,2.00
2023-04-15T09:27:53.289Z,2.00
2023-04-15T09:30:20.187Z,2.30
2023-04-15T09:33:10.926Z,2.07
2023-04-15T09:35:37.957Z,2.27
2023-04-15T09:38:07.419Z,3.13
2023-04-15T09:40:39.430Z,3.80
2023-04-15T09:43:07.704Z,2.50
2023-04-15T09:45:35.841Z,3.00
2023-04-15T09:48:22.702Z,3.03
2023-04-15T09:50:50.425Z,2.90
2023-04-15T09:53:21.914Z,3.30
2023-04-15T09:55:58.418Z,3.63
2023-04-15T09:58:30.542Z,2.60
2023-04-15T10:00:59.177Z,3.53
2023-04-15T10:03:36.873Z,3.80
2023-04-15T10:06:05.616Z,3.80
2023-04-15T10:08:34.965Z,3.37
2023-04-15T10:11:05.506Z,3.80
2023-04-15T10:13:37.377Z,3.37
2023-04-15T10:16:07.785Z,3.53
2023-04-15T10:18:42.953Z,3.80
2023-04-15T10:21:10.290Z,3.63
2023-04-15T10:23:38.499Z,2.97
2023-04-15T10:26:06.206Z,3.53
2023-04-15T10:28:33.174Z,3.80
2023-04-15T10:31:00.678Z,3.57
2023-04-15T10:33:28.948Z,3.77
2023-04-15T10:35:56.569Z,3.13
2023-04-15T10:38:41.789Z,3.10
2023-04-15T10:41:23.883Z,3.90
2023-04-15T10:44:05.147Z,3.37
2023-04-15T10:46:40.179Z,3.53
2023-04-15T10:49:11.318Z,3.13
2023-04-15T10:51:51.688Z,3.30
2023-04-15T10:54:24.621Z,3.40
2023-04-15T10:57:06.760Z,3.60
2023-04-15T10:59:37.266Z,3.23
2023-04-15T11:02:06.938Z,3.37
2023-04-15T11:05:00.878Z,3.57
2023-04-15T11:07:46.929Z,3.10
2023-04-15T11:10:13.799Z,3.10
2023-04-15T11:12:41.972Z,3.40
2023-04-15T11:15:27.756Z,3.13
2023-04-15T11:17:55.348Z,3.13
2023-04-15T11:20:22.263Z,3.33
2023-04-15T11:23:14.387Z,3.17
2023-04-15T11:25:41.828Z,3.23
2023-04-15T11:28:08.783Z,3.00
2023-04-15T11:30:37.497Z,2.97
2023-04-15T11:33:12.549Z,2.93
2023-04-15T11:35:41.969Z,2.57
2023-04-15T11:38:12.129Z,2.87
2023-04-15T11:40:39.690Z,2.63
2023-04-15T11:43:14.009Z,3.40
2023-04-15T11:45:57.035Z,2.97
2023-04-15T11:48:26.230Z,2.77
2023-04-15T11:50:58.776Z,2.60
2023-04-15T11:53:39.260Z,2.80
2023-04-15T11:56:07.165Z,2.80
2023-04-15T11:58:37.506Z,2.53
2023-04-15T12:01:04.871Z,1.67
2023-04-15T12:03:45.684Z,1.63
2023-04-15T12:06:24.891Z,2.30
2023-04-15T12:08:52.676Z,2.40
2023-04-15T12:11:38.191Z,2.67
2023-04-15T12:14:05.310Z,1.90
2023-04-15T12:16:47.778Z,2.60
2023-04-15T12:19:36.287Z,1.77
2023-04-15T12:22:09.492Z,2.20
2023-04-15T12:24:37.455Z,1.77
2023-04-15T12:27:06.292Z,1.60
2023-04-15T12:29:34.403Z,1.50
2023-04-15T12:32:15.516Z,1.40
2023-04-15T12:34:49.688Z,1.57
2023-04-15T12:37:17.036Z,1.47
2023-04-15T12:39:45.505Z,1.77
2023-04-15T12:42:12.585Z,1.60
2023-04-15T12:44:39.973Z,1.60
2023-04-15T12:47:08.278Z,1.63
2023-04-15T12:49:35.287Z,1.67
2023-04-15T12:52:03.329Z,1.00
2023-04-15T12:54:31.516Z,1.10
2023-04-15T12:56:59.240Z,1.10
2023-04-15T12:59:26.307Z,0.90
2023-04-15T13:01:54.272Z,1.00
2023-04-15T13:04:22.429Z,0.80
2023-04-15T13:06:49.640Z,1.10
2023-04-15T13:09:16.672Z,0.60
2023-04-15T13:11:43.645Z,0.50
2023-04-15T13:14:14.381Z,0.70
2023-04-15T13:16:41.577Z,0.80
2023-04-15T13:19:08.687Z,0.50
2023-04-15T13:21:36.375Z,0.77
2023-04-15T13:24:04.917Z,0.60
2023-04-15T13:26:32.240Z,0.70
2023-04-15T13:29:00.113Z,0.70
2023-04-15T13:31:27.345Z,0.73
2023-04-15T13:33:54.436Z,0.80
2023-04-15T13:36:21.480Z,0.80
2023-04-15T13:38:50.926Z,1.00
2023-04-15T13:41:18.237Z,1.10
2023-04-15T13:43:45.090Z,1.00
2023-04-15T13:46:12.180Z,1.13
2023-04-15T13:48:39.192Z,1.40
2023-04-15T13:51:06.377Z,1.33
2023-04-15T13:53:38.415Z,1.40
2023-04-15T13:56:09.907Z,1.30
2023-04-15T13:58:37.810Z,1.00
2023-04-15T14:01:07.094Z,0.97
2023-04-15T14:03:38.199Z,1.00
2023-04-15T14:06:06.432Z,1.00
2023-04-15T14:08:33.378Z,1.10
2023-04-15T14:11:00.630Z,1.00
2023-04-15T14:13:27.662Z,1.60
2023-04-15T14:15:54.515Z,1.70
2023-04-15T14:18:21.557Z,1.17
2023-04-15T14:20:48.947Z,0.90
2023-04-15T14:23:16.420Z,0.90
2023-04-15T14:25:44.176Z,1.00
2023-04-15T14:28:12.496Z,1.30
2023-04-15T14:30:39.664Z,1.83
2023-04-15T14:33:06.787Z,1.10
2023-04-15T14:35:33.941Z,0.90
2023-04-15T14:38:01.062Z,0.83
2023-04-15T14:40:28.254Z,1.23
2023-04-15T14:42:55.592Z,0.80
2023-04-15T14:45:22.978Z,0.90
2023-04-15T14:47:50.214Z,0.90
2023-04-15T14:50:18.011Z,0.90
2023-04-15T14:52:45.728Z,0.77
2023-04-15T14:55:13.977Z,0.70
2023-04-15T14:57:42.960Z,0.60
2023-04-15T15:00:13.735Z,0.60
2023-04-15T15:02:43.747Z,0.63
2023-04-15T15:05:15.507Z,0.63
2023-04-15T15:07:42.681Z,0.60
2023-04-15T15:10:10.951Z,0.57
2023-04-15T15:12:37.974Z,0.60
2023-04-15T15:15:15.755Z,0.70
2023-04-15T15:17:52.707Z,0.70
2023-04-15T15:20:22.576Z,0.60
2023-04-15T15:22:49.766Z,0.70
2023-04-15T15:25:19.855Z,0.60
2023-04-15T15:27:46.815Z,0.70
2023-04-15T15:30:14.180Z,0.90
2023-04-15T15:32:42.911Z,0.70
2023-04-15T15:35:11.252Z,0.60
2023-04-15T15:37:39.458Z,0.60
2023-04-15T15:40:08.118Z,0.70
2023-04-15T15:42:35.746Z,0.50
2023-04-15T15:45:04.640Z,0.50
2023-04-15T15:47:32.253Z,0.60
2023-04-15T15:50:04.233Z,0.60
2023-04-15T15:52:32.565Z,0.70
2023-04-15T15:54:59.650Z,0.67
2023-04-15T15:57:26.646Z,0.60
2023-04-15T16:00:04.847Z,0.50
2023-04-15T16:03:04.229Z,0.80
2023-04-15T16:05:25.762Z,0.40
2023-04-15T16:07:53.215Z,0.70
2023-04-15T16:10:20.531Z,0.60
2023-04-15T16:12:47.681Z,0.50
2023-04-15T16:15:16.283Z,0.70
2023-04-15T16:17:43.366Z,0.60
2023-04-15T16:20:10.959Z,0.57
2023-04-15T16:22:39.529Z,0.50
2023-04-15T16:25:07.088Z,0.63
2023-04-15T16:27:38.513Z,0.90
2023-04-15T16:30:14.364Z,0.83
2023-04-15T16:32:41.591Z,0.70
2023-04-15T16:35:09.147Z,0.70
2023-04-15T16:37:36.552Z,0.80
2023-04-15T16:40:04.346Z,0.70
2023-04-15T16:42:31.488Z,0.90
2023-04-15T16:44:58.442Z,1.00
2023-04-15T16:47:25.750Z,1.17
2023-04-15T16:49:52.752Z,1.20
2023-04-15T16:52:19.689Z,1.00
2023-04-15T16:54:46.611Z,1.13
2023-04-15T16:57:13.542Z,1.20
2023-04-15T16:59:40.586Z,1.03
2023-04-15T17:02:13.572Z,1.30
2023-04-15T17:04:41.974Z,1.20
2023-04-15T17:07:10.588Z,1.70
2023-04-15T17:09:39.424Z,1.80
2023-04-15T17:12:07.673Z,1.50
2023-04-15T17:14:35.226Z,1.30
2023-04-15T17:17:02.310Z,1.60
2023-04-15T17:19:29.270Z,1.47
2023-04-15T17:21:58.088Z,1.47
2023-04-15T17:24:25.010Z,1.50
2023-04-15T17:26:53.103Z,1.50
2023-04-15T17:29:20.093Z,1.57
2023-04-15T17:31:47.071Z,1.67
2023-04-15T17:34:15.874Z,1.67
2023-04-15T17:36:43.075Z,1.50
2023-04-15T17:39:10.089Z,1.40
2023-04-15T17:41:37.018Z,1.50
2023-04-15T17:44:04.132Z,1.30
2023-04-15T17:46:31.884Z,1.20
2023-04-15T17:48:58.995Z,1.30
2023-04-15T17:51:26.564Z,1.00
2023-04-15T17:54:06.977Z,1.10
2023-04-15T17:56:34.878Z,1.13
2023-04-15T17:59:02.603Z,1.37
2023-04-15T18:01:29.560Z,1.50
2023-04-15T18:03:56.571Z,1.30
2023-04-15T18:06:23.607Z,1.03
2023-04-15T18:08:51.374Z,0.90
2023-04-15T18:11:18.245Z,1.10
2023-04-15T18:13:45.109Z,0.90
2023-04-15T18:16:11.996Z,1.20
2023-04-15T18:18:38.875Z,1.00
2023-04-15T18:21:06.118Z,0.80
2023-04-15T18:23:32.989Z,1.03
2023-04-15T18:26:00.309Z,0.90
2023-04-15T18:28:27.191Z,1.20
2023-04-15T18:30:53.994Z,1.40
2023-04-15T18:33:21.019Z,1.03
2023-04-15T18:35:49.421Z,1.40
2023-04-15T18:38:16.917Z,1.20
2023-04-15T18:40:43.788Z,1.10
2023-04-15T18:43:10.736Z,0.90
2023-04-15T18:45:37.739Z,0.77
2023-04-15T18:48:05.169Z,1.00
2023-04-15T18:50:32.006Z,1.10
2023-04-15T18:52:58.834Z,0.80
2023-04-15T18:55:25.772Z,0.97
2023-04-15T18:57:52.594Z,0.93
2023-04-15T19:00:19.760Z,1.20
2023-04-15T19:02:46.746Z,0.93
2023-04-15T19:05:13.714Z,1.20
2023-04-15T19:07:41.214Z,1.00
2023-04-15T19:10:08.289Z,0.83
2023-04-15T19:12:36.651Z,1.30
2023-04-15T19:15:04.426Z,1.20
2023-04-15T19:17:31.527Z,1.50
2023-04-15T19:19:58.435Z,1.10
2023-04-15T19:22:25.412Z,1.83
2023-04-15T19:24:52.378Z,1.23
2023-04-15T19:27:19.360Z,0.90
2023-04-15T19:29:46.203Z,0.73
2023-04-15T19:32:14.299Z,0.80
2023-04-15T19:34:41.720Z,1.00
2023-04-15T19:37:08.545Z,0.90
2023-04-15T19:39:35.733Z,0.77
2023-04-15T19:42:02.915Z,0.93
2023-04-15T19:44:29.924Z,0.60
2023-04-15T19:46:57.086Z,0.70
2023-04-15T19:49:26.535Z,0.93
2023-04-15T19:51:53.615Z,0.80
2023-04-15T19:54:20.709Z,0.70
2023-04-15T19:56:47.563Z,0.70
2023-04-15T19:59:14.431Z,0.80
2023-04-15T20:01:41.387Z,0.80
2023-04-15T20:04:08.406Z,0.90
2023-04-15T20:06:35.796Z,1.20
2023-04-15T20:09:02.928Z,1.10
2023-04-15T20:12:45.580Z,1.10
2023-04-15T20:14:17.739Z,1.10
2023-04-15T20:16:44.962Z,0.90
2023-04-15T20:19:12.456Z,1.00
2023-04-15T20:21:39.480Z,1.13
2023-04-15T20:24:07.029Z,1.30
2023-04-15T20:26:34.022Z,1.10
2023-04-15T20:29:00.929Z,1.07
2023-04-15T20:31:27.878Z,1.27
2023-04-15T20:33:54.783Z,1.00
2023-04-15T20:36:21.732Z,1.17
2023-04-15T20:38:48.581Z,1.20
2023-04-15T20:41:15.591Z,1.00
2023-04-15T20:43:42.424Z,1.60
2023-04-15T20:46:20.530Z,1.40
2023-04-15T20:48:48.634Z,1.17
2023-04-15T20:51:15.514Z,1.30
2023-04-15T20:53:42.551Z,1.60
2023-04-15T20:56:09.498Z,1.83
2023-04-15T20:58:36.454Z,1.80
2023-04-15T21:01:03.372Z,1.90
2023-04-15T21:03:30.613Z,2.73
2023-04-15T21:05:57.517Z,2.40
2023-04-15T21:08:29.305Z,2.60
2023-04-15T21:10:57.346Z,3.27
2023-04-15T21:13:24.451Z,3.40
2023-04-15T21:15:53.939Z,3.93
2023-04-15T21:18:21.814Z,3.40
2023-04-15T21:20:58.151Z,3.80
2023-04-15T21:23:28.732Z,2.67
2023-04-15T21:25:56.810Z,2.60
2023-04-15T21:28:23.675Z,2.63
2023-04-15T21:30:50.815Z,2.87
2023-04-15T21:33:20.333Z,2.60
2023-04-15T21:35:47.188Z,2.43
2023-04-15T21:38:14.297Z,1.87
2023-04-15T21:40:41.333Z,2.00
2023-04-15T21:43:08.760Z,2.10
2023-04-15T21:45:38.589Z,1.90
2023-04-15T21:48:07.801Z,2.47
2023-04-15T21:50:36.889Z,1.93
2023-04-15T21:53:04.605Z,2.63
2023-04-15T21:55:31.443Z,3.00
2023-04-15T21:57:58.296Z,3.03
2023-04-15T22:00:25.130Z,2.70
2023-04-15T22:02:52.413Z,2.50
2023-04-15T22:05:19.408Z,2.03
2023-04-15T22:07:46.508Z,2.03
2023-04-15T22:10:13.365Z,1.37
2023-04-15T22:12:42.000Z,1.40
2023-04-15T22:15:09.210Z,1.53
2023-04-15T22:17:36.045Z,1.70
2023-04-15T22:20:03.722Z,1.80
2023-04-15T22:22:43.393Z,1.70
2023-04-15T22:25:12.030Z,1.70
2023-04-15T22:27:38.880Z,1.73
2023-04-15T22:30:06.636Z,1.60
2023-04-15T22:32:33.499Z,1.60
2023-04-15T22:35:01.521Z,1.80
2023-04-15T22:37:31.632Z,2.03
2023-04-15T22:39:58.976Z,2.47
2023-04-15T22:42:25.998Z,1.80
2023-04-15T22:44:52.871Z,1.77
2023-04-15T22:47:19.883Z,1.60
2023-04-15T22:49:46.760Z,2.03
2023-04-15T22:52:23.463Z,1.20
2023-04-15T22:54:56.702Z,2.03
2023-04-15T22:57:23.650Z,2.50
2023-04-15T22:59:50.578Z,2.53
2023-04-15T23:02:17.578Z,3.00
2023-04-15T23:04:45.362Z,2.90
2023-04-15T23:07:12.441Z,2.77
2023-04-15T23:09:39.844Z,2.17
2023-04-15T23:12:06.853Z,1.93
2023-04-15T23:14:33.795Z,2.07
2023-04-15T23:17:00.988Z,2.37
2023-04-15T23:19:27.851Z,3.10
2023-04-15T23:21:54.722Z,2.63
2023-04-15T23:24:21.608Z,2.37
2023-04-15T23:26:48.480Z,2.77
2023-04-15T23:29:15.370Z,2.40
2023-04-15T23:31:42.269Z,2.47
2023-04-15T23:34:09.538Z,3.10
2023-04-15T23:36:36.412Z,2.37
2023-04-15T23:39:03.282Z,2.87
2023-04-15T23:41:30.208Z,3.53
2023-04-15T23:43:57.052Z,2.90
2023-04-15T23:46:23.963Z,3.20
2023-04-15T23:48:50.807Z,3.50
2023-04-15T23:51:17.775Z,4.13
2023-04-15T23:53:44.650Z,3.80
2023-04-15T23:56:11.633Z,3.00
2023-04-15T23:58:38.450Z,3.97
